Terminal Aerodrome Forecast
Issued by NWS

Home | Current Version | Previous Version | Text Only | Print | Product List | Glossary Off
Versions: 1 2 3 4 5 6 7 8 9 10 11 12 13 14 15 16

971
FTUS43 KOAX 130935 AAA
TAFCDR
TAF AMD
KCDR 130935Z 1310/1406 19013KT P6SM OVC013
     FM131600 21008KT P6SM OVC025
     FM131800 23012G20KT P6SM SCT025 SCT250=

USA.gov is the U.S. government's official web portal to all federal, state and local government web resources and services.